sensor_id;sensor_type;location;lat;lon;timestamp;pressure;altitude;pressure_sealevel;temperature;humidity
39309;BME280;26019;47.510;19.122;2023-08-01T00:09:07;99688.66;;;16.49;100.00
39309;BME280;26019;47.510;19.122;2023-08-01T00:19:09;99681.09;;;16.41;100.00
39309;BME280;26019;47.510;19.122;2023-08-01T00:29:11;99684.78;;;16.37;100.00
39309;BME280;26019;47.510;19.122;2023-08-01T00:39:13;99691.84;;;16.34;100.00
39309;BME280;26019;47.510;19.122;2023-08-01T00:49:15;99675.41;;;16.09;100.00
39309;BME280;26019;47.510;19.122;2023-08-01T00:59:17;99664.63;;;15.96;100.00
39309;BME280;26019;47.510;19.122;2023-08-01T01:09:22;99641.50;;;15.89;100.00
39309;BME280;26019;47.510;19.122;2023-08-01T01:19:23;99636.59;;;15.79;100.00
39309;BME280;26019;47.510;19.122;2023-08-01T01:29:26;99636.31;;;15.63;100.00
39309;BME280;26019;47.510;19.122;2023-08-01T01:39:28;99629.72;;;15.55;100.00
39309;BME280;26019;47.510;19.122;2023-08-01T01:49:30;99627.41;;;15.47;100.00
39309;BME280;26019;47.510;19.122;2023-08-01T01:59:32;99617.09;;;15.44;100.00
39309;BME280;26019;47.510;19.122;2023-08-01T02:09:43;99598.53;;;15.29;100.00
39309;BME280;26019;47.510;19.122;2023-08-01T02:19:45;99600.19;;;15.32;100.00
39309;BME280;26019;47.510;19.122;2023-08-01T02:29:48;99594.22;;;15.28;100.00
39309;BME280;26019;47.510;19.122;2023-08-01T02:39:51;99593.72;;;15.18;100.00
39309;BME280;26019;47.510;19.122;2023-08-01T02:49:54;99583.44;;;15.15;100.00
39309;BME280;26019;47.510;19.122;2023-08-01T02:59:57;99582.59;;;15.15;100.00
39309;BME280;26019;47.510;19.122;2023-08-01T03:09:58;99587.06;;;15.11;100.00
39309;BME280;26019;47.510;19.122;2023-08-01T03:20:00;99584.81;;;15.02;100.00
39309;BME280;26019;47.510;19.122;2023-08-01T03:30:03;99572.19;;;15.15;100.00
39309;BME280;26019;47.510;19.122;2023-08-01T03:40:18;99566.50;;;15.27;100.00
39309;BME280;26019;47.510;19.122;2023-08-01T03:50:21;99564.09;;;15.22;100.00
39309;BME280;26019;47.510;19.122;2023-08-01T04:00:23;99566.28;;;15.33;100.00
39309;BME280;26019;47.510;19.122;2023-08-01T04:10:24;99580.22;;;15.56;100.00
39309;BME280;26019;47.510;19.122;2023-08-01T04:20:26;99562.59;;;15.85;100.00
39309;BME280;26019;47.510;19.122;2023-08-01T04:30:28;99556.53;;;16.07;100.00
39309;BME280;26019;47.510;19.122;2023-08-01T04:40:30;99566.06;;;16.28;100.00
39309;BME280;26019;47.510;19.122;2023-08-01T04:50:31;99550.56;;;16.46;100.00
39309;BME280;26019;47.510;19.122;2023-08-01T05:00:35;99548.09;;;16.83;100.00
39309;BME280;26019;47.510;19.122;2023-08-01T05:10:37;99542.41;;;17.14;100.00
39309;BME280;26019;47.510;19.122;2023-08-01T05:20:39;99539.94;;;17.30;100.00
39309;BME280;26019;47.510;19.122;2023-08-01T05:30:40;99528.72;;;17.65;100.00
39309;BME280;26019;47.510;19.122;2023-08-01T05:40:42;99535.66;;;18.03;100.00
39309;BME280;26019;47.510;19.122;2023-08-01T05:50:44;99539.06;;;18.56;100.00
39309;BME280;26019;47.510;19.122;2023-08-01T06:00:46;99532.22;;;19.05;100.00
39309;BME280;26019;47.510;19.122;2023-08-01T06:10:48;99533.28;;;19.81;100.00
39309;BME280;26019;47.510;19.122;2023-08-01T06:20:50;99537.16;;;20.51;100.00
39309;BME280;26019;47.510;19.122;2023-08-01T06:30:56;99527.69;;;21.06;100.00
39309;BME280;26019;47.510;19.122;2023-08-01T06:41:00;99519.91;;;21.61;100.00
39309;BME280;26019;47.510;19.122;2023-08-01T06:51:02;99512.69;;;22.18;97.71
39309;BME280;26019;47.510;19.122;2023-08-01T07:01:04;99511.50;;;22.49;92.36
39309;BME280;26019;47.510;19.122;2023-08-01T07:11:07;99507.84;;;23.02;89.12
39309;BME280;26019;47.510;19.122;2023-08-01T07:21:09;99501.28;;;23.45;84.75
39309;BME280;26019;47.510;19.122;2023-08-01T07:31:11;99495.25;;;23.92;78.84
39309;BME280;26019;47.510;19.122;2023-08-01T07:41:13;99489.25;;;25.05;69.54
39309;BME280;26019;47.510;19.122;2023-08-01T07:51:16;99472.69;;;25.14;65.30
39309;BME280;26019;47.510;19.122;2023-08-01T08:01:17;99461.50;;;25.55;61.98
39309;BME280;26019;47.510;19.122;2023-08-01T08:11:20;99455.25;;;25.98;59.38
39309;BME280;26019;47.510;19.122;2023-08-01T08:21:22;99452.41;;;26.32;55.30
39309;BME280;26019;47.510;19.122;2023-08-01T08:31:28;99461.66;;;26.17;55.37
39309;BME280;26019;47.510;19.122;2023-08-01T08:41:38;99451.78;;;26.19;55.21
39309;BME280;26019;47.510;19.122;2023-08-01T08:51:42;99432.13;;;26.43;52.52
39309;BME280;26019;47.510;19.122;2023-08-01T09:01:50;99432.63;;;27.77;50.04
39309;BME280;26019;47.510;19.122;2023-08-01T09:11:52;99417.50;;;26.89;48.84
39309;BME280;26019;47.510;19.122;2023-08-01T09:21:55;99411.63;;;27.94;44.91
39309;BME280;26019;47.510;19.122;2023-08-01T09:31:57;99375.56;;;31.54;37.14
39309;BME280;26019;47.510;19.122;2023-08-01T09:42:02;99372.72;;;31.06;36.93
39309;BME280;26019;47.510;19.122;2023-08-01T09:52:04;99357.75;;;29.84;38.17
39309;BME280;26019;47.510;19.122;2023-08-01T10:02:15;99356.00;;;29.67;39.41
39309;BME280;26019;47.510;19.122;2023-08-01T10:12:17;99335.56;;;29.04;39.29
39309;BME280;26019;47.510;19.122;2023-08-01T10:22:20;99309.41;;;34.35;31.20
39309;BME280;26019;47.510;19.122;2023-08-01T10:32:38;99293.00;;;33.78;29.83
39309;BME280;26019;47.510;19.122;2023-08-01T10:42:45;99297.06;;;34.19;31.25
39309;BME280;26019;47.510;19.122;2023-08-01T10:52:49;99273.94;;;34.77;29.32
39309;BME280;26019;47.510;19.122;2023-08-01T11:02:53;99257.72;;;32.91;29.00
39309;BME280;26019;47.510;19.122;2023-08-01T11:12:58;99248.88;;;33.74;27.55
39309;BME280;26019;47.510;19.122;2023-08-01T11:23:01;99231.19;;;32.90;28.71
39309;BME280;26019;47.510;19.122;2023-08-01T11:33:22;99224.63;;;32.23;28.70
39309;BME280;26019;47.510;19.122;2023-08-01T11:43:24;99216.06;;;32.27;28.14
39309;BME280;26019;47.510;19.122;2023-08-01T11:53:26;99191.81;;;32.75;27.48
39309;BME280;26019;47.510;19.122;2023-08-01T12:03:32;99176.06;;;32.42;28.23
39309;BME280;26019;47.510;19.122;2023-08-01T12:13:35;99156.50;;;32.18;28.97
39309;BME280;26019;47.510;19.122;2023-08-01T12:23:37;99144.88;;;31.48;29.53
39309;BME280;26019;47.510;19.122;2023-08-01T12:33:38;99124.78;;;31.21;29.41
39309;BME280;26019;47.510;19.122;2023-08-01T12:43:40;99106.91;;;30.57;29.64
39309;BME280;26019;47.510;19.122;2023-08-01T12:53:42;99110.00;;;31.81;28.51
39309;BME280;26019;47.510;19.122;2023-08-01T13:03:44;99096.38;;;30.88;29.62
39309;BME280;26019;47.510;19.122;2023-08-01T13:13:47;99085.44;;;31.23;29.78
39309;BME280;26019;47.510;19.122;2023-08-01T13:23:50;99077.28;;;30.43;31.28
39309;BME280;26019;47.510;19.122;2023-08-01T13:33:55;99080.09;;;30.08;31.55
39309;BME280;26019;47.510;19.122;2023-08-01T13:43:57;99046.13;;;36.33;24.32
39309;BME280;26019;47.510;19.122;2023-08-01T13:53:59;99056.31;;;37.49;22.52
39309;BME280;26019;47.510;19.122;2023-08-01T14:04:01;99047.72;;;41.66;18.65
39309;BME280;26019;47.510;19.122;2023-08-01T14:14:04;99051.22;;;34.63;25.89
39309;BME280;26019;47.510;19.122;2023-08-01T14:24:05;99033.69;;;35.58;25.32
39309;BME280;26019;47.510;19.122;2023-08-01T14:34:13;99012.25;;;33.60;28.10
39309;BME280;26019;47.510;19.122;2023-08-01T14:44:16;99001.97;;;32.90;26.86
39309;BME280;26019;47.510;19.122;2023-08-01T14:54:19;98979.69;;;35.39;24.27
39309;BME280;26019;47.510;19.122;2023-08-01T15:04:40;98972.25;;;32.25;28.07
39309;BME280;26019;47.510;19.122;2023-08-01T15:14:43;98973.88;;;30.87;30.97
39309;BME280;26019;47.510;19.122;2023-08-01T15:24:50;98970.41;;;30.21;32.50
39309;BME280;26019;47.510;19.122;2023-08-01T15:34:54;98963.59;;;29.77;33.86
39309;BME280;26019;47.510;19.122;2023-08-01T15:44:56;98974.91;;;28.95;34.45
39309;BME280;26019;47.510;19.122;2023-08-01T15:54:58;99012.88;;;28.53;40.53
39309;BME280;26019;47.510;19.122;2023-08-01T16:05:01;99031.84;;;25.78;48.22
39309;BME280;26019;47.510;19.122;2023-08-01T16:15:04;99081.50;;;23.64;69.16
39309;BME280;26019;47.510;19.122;2023-08-01T16:25:06;99114.69;;;22.40;92.40
39309;BME280;26019;47.510;19.122;2023-08-01T16:35:08;99142.22;;;21.99;92.93
39309;BME280;26019;47.510;19.122;2023-08-01T16:45:11;99189.16;;;21.16;100.00
39309;BME280;26019;47.510;19.122;2023-08-01T16:55:16;99196.13;;;20.77;100.00
39309;BME280;26019;47.510;19.122;2023-08-01T17:05:19;99183.72;;;20.38;100.00
39309;BME280;26019;47.510;19.122;2023-08-01T17:15:22;99174.75;;;20.01;100.00
39309;BME280;26019;47.510;19.122;2023-08-01T17:25:25;99195.16;;;19.81;100.00
39309;BME280;26019;47.510;19.122;2023-08-01T17:35:28;99192.75;;;19.34;100.00
39309;BME280;26019;47.510;19.122;2023-08-01T17:45:31;99197.13;;;18.89;100.00
39309;BME280;26019;47.510;19.122;2023-08-01T17:55:39;99180.38;;;18.30;100.00
39309;BME280;26019;47.510;19.122;2023-08-01T18:05:41;99184.38;;;18.05;100.00
39309;BME280;26019;47.510;19.122;2023-08-01T18:15:44;99207.44;;;17.97;100.00
39309;BME280;26019;47.510;19.122;2023-08-01T18:25:47;99220.63;;;17.78;100.00
39309;BME280;26019;47.510;19.122;2023-08-01T18:35:51;99228.22;;;17.67;100.00
39309;BME280;26019;47.510;19.122;2023-08-01T18:45:53;99278.56;;;17.35;100.00
39309;BME280;26019;47.510;19.122;2023-08-01T18:56:12;99286.88;;;17.26;100.00
39309;BME280;26019;47.510;19.122;2023-08-01T19:06:16;99314.50;;;17.30;100.00
39309;BME280;26019;47.510;19.122;2023-08-01T19:16:20;99306.78;;;17.28;100.00
39309;BME280;26019;47.510;19.122;2023-08-01T19:26:23;99270.13;;;17.30;100.00
39309;BME280;26019;47.510;19.122;2023-08-01T19:36:32;99248.09;;;17.18;100.00
39309;BME280;26019;47.510;19.122;2023-08-01T19:46:35;99239.84;;;16.91;100.00
39309;BME280;26019;47.510;19.122;2023-08-01T19:56:46;99243.72;;;16.83;100.00
39309;BME280;26019;47.510;19.122;2023-08-01T20:06:48;99234.81;;;16.87;100.00
39309;BME280;26019;47.510;19.122;2023-08-01T20:16:50;99232.94;;;16.90;100.00
39309;BME280;26019;47.510;19.122;2023-08-01T20:26:52;99195.34;;;16.76;100.00
39309;BME280;26019;47.510;19.122;2023-08-01T20:36:54;99168.75;;;16.69;100.00
39309;BME280;26019;47.510;19.122;2023-08-01T20:46:57;99159.13;;;16.70;100.00
39309;BME280;26019;47.510;19.122;2023-08-01T20:57:01;99169.41;;;16.73;100.00
39309;BME280;26019;47.510;19.122;2023-08-01T21:07:04;99209.47;;;16.72;100.00
39309;BME280;26019;47.510;19.122;2023-08-01T21:17:06;99218.22;;;16.71;100.00
39309;BME280;26019;47.510;19.122;2023-08-01T21:27:08;99263.22;;;16.57;100.00
39309;BME280;26019;47.510;19.122;2023-08-01T21:37:10;99227.72;;;16.54;100.00
39309;BME280;26019;47.510;19.122;2023-08-01T21:47:12;99291.63;;;16.44;100.00
39309;BME280;26019;47.510;19.122;2023-08-01T21:57:16;99355.69;;;16.31;100.00
39309;BME280;26019;47.510;19.122;2023-08-01T22:07:18;99374.56;;;16.36;100.00
39309;BME280;26019;47.510;19.122;2023-08-01T22:17:21;99332.72;;;16.39;100.00
39309;BME280;26019;47.510;19.122;2023-08-01T22:27:23;99311.84;;;16.39;100.00
39309;BME280;26019;47.510;19.122;2023-08-01T22:37:24;99290.31;;;16.35;100.00
39309;BME280;26019;47.510;19.122;2023-08-01T22:47:27;99273.38;;;16.44;100.00
39309;BME280;26019;47.510;19.122;2023-08-01T22:57:29;99284.19;;;16.36;100.00
39309;BME280;26019;47.510;19.122;2023-08-01T23:07:31;99286.69;;;16.38;100.00
39309;BME280;26019;47.510;19.122;2023-08-01T23:17:35;99278.25;;;16.33;100.00
39309;BME280;26019;47.510;19.122;2023-08-01T23:27:37;99300.59;;;16.38;100.00
39309;BME280;26019;47.510;19.122;2023-08-01T23:37:39;99282.41;;;16.37;100.00
39309;BME280;26019;47.510;19.122;2023-08-01T23:47:41;99334.81;;;16.31;100.00
39309;BME280;26019;47.510;19.122;2023-08-01T23:57:43;99330.03;;;16.21;100.00
